USCGC Polar Star — NBTM — position and weather

sailwx.info

Track history (hours):
 
Tides and Currents Weather Stations Pressure Air Temp Water Temp Dewpoint Dewpoint Depression Visibility Wind Speed Wind Dir Waves Ship Positions

Oceanographic research ship USCGC Polar Star (USA)

Detailed information on ship capabilities available from University of Delaware's Ocean Information Center and ARCUS's ALIAS (Arctic Logistics Information and Support) project.

Last reported at 2017-Apr-21 19:10 UTC. Time now 2017-Jun-24 05:18 UTC.
Position N 38°06' W 122°16'.
Warning: this ship's position is months out of date.

Type: Military. MMSI: 367255000.

Date/timePositionNaut miles runAvg speedWind from/ knotsBaromVisibWave heightAir tempDewpointWater temp
2017-Apr-21 19:10N 38°06' W 122°16'0 0.0
2017-Apr-21 19:00N 38°06' W 122°16'0 0.0
2017-Apr-21 18:30N 38°06' W 122°16'0 0.0
2017-Apr-21 18:00N 38°06' W 122°16'0 0.1
2017-Apr-21 17:30N 38°06' W 122°16'0 0.1
2017-Apr-21 17:00N 38°06' W 122°16'1 1.5
2017-Apr-21 16:30N 38°05' W 122°15'2 4.5
2017-Apr-21 16:00N 38°04' W 122°17'3 6.3
2017-Apr-21 15:31N 38°03' W 122°21'3 5.7
2017-Apr-21 15:00N 38°01' W 122°24'3 5.4
2017-Apr-21 14:30N 37°59' W 122°26'6 6.1
2017-Apr-21 13:30N 37°53' W 122°25'3 6.3
2017-Apr-21 13:00N 37°50' W 122°24'3 5.3
2017-Apr-21 12:31N 37°47' W 122°23'0 0.3
2017-Apr-21 12:00N 37°47' W 122°23'0 0.0
2017-Apr-21 11:10N 37°47' W 122°23'0 0.0
2017-Apr-21 10:58N 37°47' W 122°23'0 0.0
2017-Apr-21 10:17N 37°47' W 122°23'0 0.0
2017-Apr-21 09:59N 37°47' W 122°23'0 0.0
2017-Apr-21 09:29N 37°47' W 122°23'0 0.0
2017-Apr-21 08:50N 37°47' W 122°23'0 0.0
2017-Apr-21 08:26N 37°47' W 122°23'0 0.0
2017-Apr-21 07:56N 37°47' W 122°23'0 0.0
2017-Apr-21 07:29N 37°47' W 122°23'0 0.0
2017-Apr-21 06:55N 37°47' W 122°23'0 0.0
2017-Apr-21 06:29N 37°47' W 122°23'0 0.0
2017-Apr-21 05:59N 37°47' W 122°23'0 0.0
2017-Apr-21 05:26N 37°47' W 122°23'0 0.0
2017-Apr-21 04:59N 37°47' W 122°23'0 0.0
2017-Apr-21 04:29N 37°47' W 122°23'0 0.0
2017-Apr-21 03:59N 37°47' W 122°23'0 0.0
2017-Apr-21 03:29N 37°47' W 122°23'0 0.0
2017-Apr-21 02:59N 37°47' W 122°23'0 0.0
2017-Apr-21 02:29N 37°47' W 122°23'0 0.0
2017-Apr-21 01:59N 37°47' W 122°23'0 0.0
2017-Apr-21 01:29N 37°47' W 122°23'0 0.0
2017-Apr-21 00:56N 37°47' W 122°23'0 0.0
2017-Apr-21 00:29N 37°47' W 122°23'0 0.0
2017-Apr-20 23:59N 37°47' W 122°23'0 0.0
2017-Apr-20 23:29N 37°47' W 122°23'0 0.0
2017-Apr-20 22:59N 37°47' W 122°23'0 0.0
2017-Apr-20 22:29N 37°47' W 122°23'0 0.0
2017-Apr-20 21:59N 37°47' W 122°23'0 0.0
2017-Apr-20 21:29N 37°47' W 122°23'0 0.0
2017-Apr-20 20:59N 37°47' W 122°23'0 0.0
2017-Apr-20 20:29N 37°47' W 122°23'0 0.0
2017-Apr-20 19:59N 37°47' W 122°23'0 0.0
2017-Apr-20 19:29N 37°47' W 122°23'0 0.0
2017-Apr-20 18:56N 37°47' W 122°23'0 0.0
2017-Apr-20 18:29N 37°47' W 122°23'0 0.0
2017-Apr-20 17:59N 37°47' W 122°23'0 0.0
2017-Apr-20 17:29N 37°47' W 122°23'0 0.0
2017-Apr-20 16:55N 37°47' W 122°23'0 0.0
2017-Apr-20 16:29N 37°47' W 122°23'0 0.0
2017-Apr-20 15:59N 37°47' W 122°23'0 0.0
2017-Apr-20 15:29N 37°47' W 122°23'0 0.0
2017-Apr-20 14:59N 37°47' W 122°23'0 0.0
2017-Apr-20 14:29N 37°47' W 122°23'0 0.0
2017-Apr-20 13:29N 37°47' W 122°23'0 0.0
2017-Apr-20 12:59N 37°47' W 122°23'0 0.0
2017-Apr-20 12:29N 37°47' W 122°23'0 0.0
2017-Apr-20 11:59N 37°47' W 122°23'0 0.0
2017-Apr-20 11:29N 37°47' W 122°23'0 0.0
2017-Apr-20 10:56N 37°47' W 122°23'0 0.0
2017-Apr-20 10:26N 37°47' W 122°23'0 0.0
2017-Apr-20 09:56N 37°47' W 122°23'0 0.0
2017-Apr-20 09:20N 37°47' W 122°23'0 0.0
2017-Apr-20 08:50N 37°47' W 122°23'0 0.0
2017-Apr-20 08:26N 37°47' W 122°23'0 0.0
2017-Apr-20 07:59N 37°47' W 122°23'0 0.0
2017-Apr-20 07:29N 37°47' W 122°23'0 0.0
2017-Apr-20 06:59N 37°47' W 122°23'0 0.0
2017-Apr-20 06:29N 37°47' W 122°23'0 0.0
2017-Apr-20 05:59N 37°47' W 122°23'0 0.0
2017-Apr-20 05:29N 37°47' W 122°23'0 0.0
2017-Apr-20 04:59N 37°47' W 122°23'0 0.0
2017-Apr-20 04:29N 37°47' W 122°23'0 0.0
2017-Apr-20 03:59N 37°47' W 122°23'0 0.0
2017-Apr-20 03:29N 37°47' W 122°23'0 0.0
2017-Apr-20 02:59N 37°47' W 122°23'0 0.0
2017-Apr-20 02:26N 37°47' W 122°23'0 0.0
2017-Apr-20 01:59N 37°47' W 122°23'0 0.0
2017-Apr-20 01:29N 37°47' W 122°23'0 0.0
2017-Apr-20 00:59N 37°47' W 122°23'0 0.0
2017-Apr-20 00:29N 37°47' W 122°23'0 0.0
2017-Apr-19 23:59N 37°47' W 122°23'0 0.0
2017-Apr-19 23:29N 37°47' W 122°23'0 0.0
2017-Apr-19 22:56N 37°47' W 122°23'0 0.0
2017-Apr-19 22:26N 37°47' W 122°23'0 0.0
2017-Apr-19 21:59N 37°47' W 122°23'1 0.1
2017-Apr-19 14:49N 37°47' W 122°22'1 1.7
2017-Apr-19 14:28N 37°48' W 122°22'0 0.1
2017-Apr-19 13:26N 37°47' W 122°21'0 0.0
2017-Apr-19 12:59N 37°47' W 122°21'0 0.0
2017-Apr-19 12:29N 37°47' W 122°21'0 0.0
2017-Apr-19 11:59N 37°47' W 122°21'0 0.0
2017-Apr-19 11:29N 37°47' W 122°21'0 0.0
2017-Apr-19 10:59N 37°47' W 122°21'0 0.0
2017-Apr-19 10:29N 37°47' W 122°21'0 0.0
2017-Apr-19 09:59N 37°47' W 122°21'0 0.0
2017-Apr-19 09:28N 37°47' W 122°21'0 0.0
2017-Apr-19 08:58N 37°48' W 122°21'0 0.0
2017-Apr-19 08:29N 37°48' W 122°21'0 0.1
2017-Apr-19 07:59N 37°48' W 122°22'0 0.0
2017-Apr-19 07:29N 37°48' W 122°22'0 0.0
2017-Apr-19 06:59N 37°48' W 122°22'0 0.0
2017-Apr-19 06:29N 37°48' W 122°22'0 0.0
2017-Apr-19 05:59N 37°48' W 122°22'0 0.0
2017-Apr-19 05:25N 37°48' W 122°22'0 0.0
2017-Apr-19 04:59N 37°48' W 122°22'0 0.1
2017-Apr-19 04:29N 37°48' W 122°21'0 0.0
2017-Apr-19 03:59N 37°48' W 122°21'0 0.1
2017-Apr-19 03:28N 37°48' W 122°21'0 0.0
2017-Apr-19 02:59N 37°47' W 122°21'0 0.0
2017-Apr-19 02:29N 37°47' W 122°21'0 0.1
2017-Apr-19 01:59N 37°47' W 122°21'0 0.0
2017-Apr-19 01:29N 37°47' W 122°21'0 0.1
2017-Apr-19 00:59N 37°47' W 122°21'0 0.1
2017-Apr-19 00:29N 37°47' W 122°21'0 0.1
2017-Apr-18 23:59N 37°47' W 122°21'0 0.1
2017-Apr-18 23:29N 37°47' W 122°21'0 0.0
2017-Apr-18 22:59N 37°47' W 122°21'0 0.0
2017-Apr-18 22:29N 37°47' W 122°21'0 0.1
2017-Apr-18 22:00N 37°48' W 122°21'1 2.6
2017-Apr-18 21:30N 37°48' W 122°23'611.8
2017-Apr-18 21:00N 37°48' W 122°30'815.0
2017-Apr-18 20:30N 37°45' W 122°39'713.6
2017-Apr-18 20:00N 37°47' W 122°48'816.5
2017-Apr-18 19:31N 37°51' W 122°57'917.3
2017-Apr-18 19:01N 37°55' W 123°06'816.6
2017-Apr-18 18:31N 38°01' W 123°14'817.0
2017-Apr-18 18:01N 38°07' W 123°21'917.0
2017-Apr-18 17:30N 38°15' W 123°25'612.0
2017-Apr-18 17:00N 38°20' W 123°30'917.6
2017-Apr-18 16:30N 38°27' W 123°35'714.9
2017-Apr-18 16:01N 38°34' W 123°39'815.1
2017-Apr-18 15:30N 38°41' W 123°45'40813.1
2017-Apr-17 08:21N 45°24' W 125°05'617.8
2017-Apr-17 07:59N 45°31' W 125°05'917.9
2017-Apr-17 07:31N 45°39' W 125°05'918.0
2017-Apr-17 07:01N 45°48' W 125°05'918.1
2017-Apr-17 06:30N 45°57' W 125°06'918.2
2017-Apr-17 06:01N 46°06' W 125°06'918.4
2017-Apr-17 05:31N 46°15' W 125°05'918.4
2017-Apr-17 05:00N 46°25' W 125°06'918.6
2017-Apr-17 04:31N 46°34' W 125°06'918.6
2017-Apr-17 04:00N 46°43' W 125°07'918.5
2017-Apr-17 03:30N 46°53' W 125°08'918.6
2017-Apr-17 03:00N 47°02' W 125°09'510.4
2017-Apr-17 02:30N 47°07' W 125°10'4 8.3
2017-Apr-17 02:00N 47°11' W 125°06'714.5
2017-Apr-17 01:31N 47°18' W 125°07'5410.3
2017-Apr-16 20:14N 48°12' W 125°07'3 8.6
2017-Apr-16 19:53N 48°15' W 125°08'4 8.3
2017-Apr-16 19:26N 48°19' W 125°09'4 8.4
2017-Apr-16 18:57N 48°23' W 125°08'4 8.4
2017-Apr-16 18:30N 48°26' W 125°06'4 8.0
2017-Apr-16 17:57N 48°30' W 125°03'3 7.2
2017-Apr-16 17:30N 48°31' W 124°58'5 9.7
2017-Apr-16 17:00N 48°31' W 124°51'4 8.9
2017-Apr-16 16:30N 48°31' W 124°44'715.2
2017-Apr-16 16:00N 48°28' W 124°34'816.1
2017-Apr-16 15:31N 48°25' W 124°23'815.9
2017-Apr-16 15:01N 48°22' W 124°12'1110.9
2017-Apr-16 14:00N 48°18' W 123°56'2 4.3
2017-Apr-16 13:27N 48°17' W 123°53'2 4.3
2017-Apr-16 13:00N 48°17' W 123°50'2 3.9
2017-Apr-16 12:30N 48°16' W 123°47'2 3.8
2017-Apr-16 12:00N 48°16' W 123°44'2 4.1
2017-Apr-16 11:30N 48°16' W 123°41'2 4.0
2017-Apr-16 11:00N 48°16' W 123°38'2 4.1
2017-Apr-16 10:30N 48°15' W 123°35'2 4.8
2017-Apr-16 10:00N 48°15' W 123°32'2 4.3
2017-Apr-16 09:30N 48°15' W 123°29'2 4.1
2017-Apr-16 09:00N 48°15' W 123°26'2 4.5
2017-Apr-16 08:30N 48°14' W 123°22'2 4.2
2017-Apr-16 08:00N 48°14' W 123°19'2 4.4
2017-Apr-16 07:29N 48°14' W 123°16'2 4.4
2017-Apr-16 06:56N 48°14' W 123°12'2 4.1
2017-Apr-16 06:30N 48°14' W 123°09'2 3.5
2017-Apr-16 05:58N 48°13' W 123°06'1 2.4
2017-Apr-16 05:26N 48°13' W 123°05'1 2.2
2017-Apr-16 05:00N 48°13' W 123°03'1 2.1
2017-Apr-16 04:30N 48°13' W 123°02'1 2.0
2017-Apr-16 03:59N 48°13' W 123°00'2 3.1
2017-Apr-16 03:15N 48°12' W 122°57'1 3.2
2017-Apr-16 03:00N 48°12' W 122°56'1 1.9
2017-Apr-16 02:29N 48°13' W 122°54'1 1.1
2017-Apr-16 01:58N 48°12' W 122°53'13 9.0
2017-Apr-16 00:30N 48°04' W 122°38'611.9
2017-Apr-16 00:00N 47°59' W 122°35'611.3
2017-Apr-15 23:30N 47°55' W 122°29'612.0
2017-Apr-15 23:00N 47°49' W 122°27'611.9
2017-Apr-15 22:30N 47°43' W 122°26'5 9.1
2017-Apr-15 22:00N 47°38' W 122°26'4 7.3
2017-Apr-15 21:30N 47°36' W 122°22'1 1.6
2017-Apr-15 21:00N 47°36' W 122°21'0 0.7
2017-Apr-15 20:29N 47°35' W 122°21'0 0.0
2017-Apr-15 19:59N 47°35' W 122°21'0 0.0
2017-Apr-15 19:29N 47°35' W 122°21'0 0.0
2017-Apr-15 18:59N 47°35' W 122°21'0 0.0
2017-Apr-15 18:29N 47°35' W 122°21'0 0.0
2017-Apr-15 17:59N 47°35' W 122°21'0 0.0
2017-Apr-15 17:27N 47°35' W 122°21'0 0.0
2017-Apr-15 16:57N 47°35' W 122°21'0 0.0
2017-Apr-15 16:29N 47°35' W 122°21'0 0.0
2017-Apr-15 15:59N 47°35' W 122°21'0 0.0
2017-Apr-15 15:30N 47°35' W 122°21'0 0.0
2017-Apr-15 14:59N 47°35' W 122°21'0 0.0
2017-Apr-15 14:30N 47°35' W 122°21'0 0.0
2017-Apr-15 13:29N 47°35' W 122°21'0 0.0
2017-Apr-15 12:59N 47°35' W 122°21'0 0.0
2017-Apr-15 12:30N 47°35' W 122°21'0 0.0
2017-Apr-15 12:00N 47°35' W 122°21'0 0.0
2017-Apr-15 11:29N 47°35' W 122°21'0 0.0
2017-Apr-15 11:00N 47°35' W 122°21'0 0.0
2017-Apr-15 10:30N 47°35' W 122°21'0 0.0
2017-Apr-15 10:00N 47°35' W 122°21'0 0.0
2017-Apr-15 09:29N 47°35' W 122°21'0 0.0
2017-Apr-15 09:00N 47°35' W 122°21'0 0.0
2017-Apr-15 08:29N 47°35' W 122°21'0 0.0
2017-Apr-15 08:00N 47°35' W 122°21'0 0.0
2017-Apr-15 07:26N 47°35' W 122°21'0 0.0
2017-Apr-15 07:00N 47°35' W 122°21'0 0.0
2017-Apr-15 06:30N 47°35' W 122°21'0 0.0
2017-Apr-15 06:00N 47°35' W 122°21'0 0.0
2017-Apr-15 05:29N 47°35' W 122°21'0 0.0
2017-Apr-15 05:00N 47°35' W 122°21'0 0.0
2017-Apr-15 04:30N 47°35' W 122°21'0 0.0
2017-Apr-15 03:57N 47°35' W 122°21'0 0.0
2017-Apr-15 03:30N 47°35' W 122°21'0 0.0
2017-Apr-15 03:00N 47°35' W 122°21'0 0.0
2017-Apr-15 02:30N 47°35' W 122°21'0 0.0
2017-Apr-15 01:57N 47°35' W 122°21'0 0.0
2017-Apr-15 01:27N 47°35' W 122°21'0 0.0
2017-Apr-15 01:00N 47°35' W 122°21'0 0.0
2017-Apr-15 00:26N 47°35' W 122°21'0 0.0
2017-Apr-15 00:00N 47°35' W 122°21'0 0.0
2017-Apr-14 23:29N 47°35' W 122°21'0 0.0
2017-Apr-14 22:59N 47°35' W 122°21'0 0.0
2017-Apr-14 22:30N 47°35' W 122°21'0 0.0
2017-Apr-14 21:59N 47°35' W 122°21'0 0.0
2017-Apr-14 21:30N 47°35' W 122°21'0 0.0
2017-Apr-14 21:00N 47°35' W 122°21'0 0.0
2017-Apr-14 20:29N 47°35' W 122°21'0 0.0
2017-Apr-14 19:59N 47°35' W 122°21'0 0.0
2017-Apr-14 19:29N 47°35' W 122°21'0 0.0
2017-Apr-14 19:00N 47°35' W 122°21'0 0.0
2017-Apr-14 18:29N 47°35' W 122°21'0 0.0
2017-Apr-14 18:00N 47°35' W 122°21'0 0.0
2017-Apr-14 17:29N 47°35' W 122°21'0 0.0
2017-Apr-14 17:00N 47°35' W 122°21'0 0.0
2017-Apr-14 16:30N 47°35' W 122°21'0 0.0
2017-Apr-14 15:56N 47°35' W 122°21'0 0.0
2017-Apr-14 15:29N 47°35' W 122°21'0 0.0
2017-Apr-14 14:59N 47°35' W 122°21'0 0.0
2017-Apr-14 14:30N 47°35' W 122°21'0 0.0
2017-Apr-14 13:30N 47°35' W 122°21'0 0.0
2017-Apr-14 13:00N 47°35' W 122°21'0 0.0
2017-Apr-14 12:30N 47°35' W 122°21'0 0.0
2017-Apr-14 12:00N 47°35' W 122°21'0 0.0
2017-Apr-14 11:29N 47°35' W 122°21'0 0.0
2017-Apr-14 10:59N 47°35' W 122°21'0 0.0
2017-Apr-14 10:29N 47°35' W 122°21'0 0.0
2017-Apr-14 10:00N 47°35' W 122°21'0 0.0
2017-Apr-14 09:29N 47°35' W 122°21'0 0.0
2017-Apr-14 09:00N 47°35' W 122°21'0 0.0
2017-Apr-14 08:30N 47°35' W 122°21'0 0.0
2017-Apr-14 07:56N 47°35' W 122°21'0 0.0
2017-Apr-14 07:30N 47°35' W 122°21'0 0.0
2017-Apr-14 06:59N 47°35' W 122°21'0 0.0
2017-Apr-14 06:30N 47°35' W 122°21'0 0.0
2017-Apr-14 05:59N 47°35' W 122°21'0 0.0
2017-Apr-14 05:30N 47°35' W 122°21'0 0.0
2017-Apr-14 04:57N 47°35' W 122°21'0 0.0
2017-Apr-14 04:29N 47°35' W 122°21'0 0.0
2017-Apr-14 04:00N 47°35' W 122°21'0 0.0
2017-Apr-14 03:29N 47°35' W 122°21'0 0.0
2017-Apr-14 03:00N 47°35' W 122°21'0 0.0
2017-Apr-14 02:30N 47°35' W 122°21'0 0.0
2017-Apr-14 02:00N 47°35' W 122°21'0 0.0
2017-Apr-14 01:30N 47°35' W 122°21'0 0.0
2017-Apr-14 01:00N 47°35' W 122°21'0 0.0
2017-Apr-14 00:30N 47°35' W 122°21'0 0.0
2017-Apr-14 00:00N 47°35' W 122°21'0 0.0
2017-Apr-13 23:29N 47°35' W 122°21'0 0.0
2017-Apr-13 22:59N 47°35' W 122°21'0 0.0
2017-Apr-13 22:27N 47°35' W 122°21'0 0.0
2017-Apr-13 21:59N 47°35' W 122°21'0 0.0
2017-Apr-13 21:24N 47°35' W 122°21'0 0.0
2017-Apr-13 21:00N 47°35' W 122°21'0 0.0
2017-Apr-13 20:26N 47°35' W 122°21'0 0.0
2017-Apr-13 19:59N 47°35' W 122°21'0 0.0
2017-Apr-13 19:30N 47°35' W 122°21'0 0.0
2017-Apr-13 18:59N 47°35' W 122°21'0 0.0
2017-Apr-13 18:30N 47°35' W 122°21'0 0.0
2017-Apr-13 17:57N 47°35' W 122°21'0 0.0
2017-Apr-13 17:27N 47°35' W 122°21'0 0.0
2017-Apr-13 17:00N 47°35' W 122°21'0 0.0
2017-Apr-13 16:30N 47°35' W 122°21'0 0.0
2017-Apr-13 16:00N 47°35' W 122°21'0 0.0
2017-Apr-13 15:29N 47°35' W 122°21'0 0.0
2017-Apr-13 15:00N 47°35' W 122°21'0 0.0
2017-Apr-13 14:30N 47°35' W 122°21'0 0.0
2017-Apr-11 22:12N 47°35' W 122°21'0 0.0
2017-Apr-11 21:58N 47°35' W 122°21'0 0.0
2017-Apr-11 21:25N 47°35' W 122°21'0 0.0
2017-Apr-11 21:00N 47°35' W 122°21'0 0.0
2017-Apr-11 20:27N 47°35' W 122°21'0 0.0
2017-Apr-11 20:00N 47°35' W 122°21'0 0.0
2017-Apr-11 19:30N 47°35' W 122°21'  
Track history (hours):
 
Tides and Currents Weather Stations Pressure Air Temp Water Temp Dewpoint Dewpoint Depression Visibility Wind Speed Wind Dir Waves Ship Positions

Oceanographic research ship USCGC Polar Star (USA)

Detailed information on ship capabilities available from University of Delaware's Ocean Information Center and ARCUS's ALIAS (Arctic Logistics Information and Support) project.

Last reported at 2017-Apr-21 19:10 UTC. Time now 2017-Jun-24 05:18 UTC.
Position N 38°06' W 122°16'.
Warning: this ship's position is months out of date.

Type: Military. MMSI: 367255000.

Date/timePositionNaut miles runAvg speedWind from/ knotsBaromVisibWave heightAir tempDewpointWater temp
2017-Apr-21 19:10N 38°06' W 122°16'0 0.0
2017-Apr-21 19:00N 38°06' W 122°16'0 0.0
2017-Apr-21 18:30N 38°06' W 122°16'0 0.0
2017-Apr-21 18:00N 38°06' W 122°16'0 0.1
2017-Apr-21 17:30N 38°06' W 122°16'0 0.1
2017-Apr-21 17:00N 38°06' W 122°16'1 1.5
2017-Apr-21 16:30N 38°05' W 122°15'2 4.5
2017-Apr-21 16:00N 38°04' W 122°17'3 6.3
2017-Apr-21 15:31N 38°03' W 122°21'3 5.7
2017-Apr-21 15:00N 38°01' W 122°24'3 5.4
2017-Apr-21 14:30N 37°59' W 122°26'6 6.1
2017-Apr-21 13:30N 37°53' W 122°25'3 6.3
2017-Apr-21 13:00N 37°50' W 122°24'3 5.3
2017-Apr-21 12:31N 37°47' W 122°23'0 0.3
2017-Apr-21 12:00N 37°47' W 122°23'0 0.0
2017-Apr-21 11:10N 37°47' W 122°23'0 0.0
2017-Apr-21 10:58N 37°47' W 122°23'0 0.0
2017-Apr-21 10:17N 37°47' W 122°23'0 0.0
2017-Apr-21 09:59N 37°47' W 122°23'0 0.0
2017-Apr-21 09:29N 37°47' W 122°23'0 0.0
2017-Apr-21 08:50N 37°47' W 122°23'0 0.0
2017-Apr-21 08:26N 37°47' W 122°23'0 0.0
2017-Apr-21 07:56N 37°47' W 122°23'0 0.0
2017-Apr-21 07:29N 37°47' W 122°23'0 0.0
2017-Apr-21 06:55N 37°47' W 122°23'0 0.0
2017-Apr-21 06:29N 37°47' W 122°23'0 0.0
2017-Apr-21 05:59N 37°47' W 122°23'0 0.0
2017-Apr-21 05:26N 37°47' W 122°23'0 0.0
2017-Apr-21 04:59N 37°47' W 122°23'0 0.0
2017-Apr-21 04:29N 37°47' W 122°23'0 0.0
2017-Apr-21 03:59N 37°47' W 122°23'0 0.0
2017-Apr-21 03:29N 37°47' W 122°23'0 0.0
2017-Apr-21 02:59N 37°47' W 122°23'0 0.0
2017-Apr-21 02:29N 37°47' W 122°23'0 0.0
2017-Apr-21 01:59N 37°47' W 122°23'0 0.0
2017-Apr-21 01:29N 37°47' W 122°23'0 0.0
2017-Apr-21 00:56N 37°47' W 122°23'0 0.0
2017-Apr-21 00:29N 37°47' W 122°23'0 0.0
2017-Apr-20 23:59N 37°47' W 122°23'0 0.0
2017-Apr-20 23:29N 37°47' W 122°23'0 0.0
2017-Apr-20 22:59N 37°47' W 122°23'0 0.0
2017-Apr-20 22:29N 37°47' W 122°23'0 0.0
2017-Apr-20 21:59N 37°47' W 122°23'0 0.0
2017-Apr-20 21:29N 37°47' W 122°23'0 0.0
2017-Apr-20 20:59N 37°47' W 122°23'0 0.0
2017-Apr-20 20:29N 37°47' W 122°23'0 0.0
2017-Apr-20 19:59N 37°47' W 122°23'0 0.0
2017-Apr-20 19:29N 37°47' W 122°23'0 0.0
2017-Apr-20 18:56N 37°47' W 122°23'0 0.0
2017-Apr-20 18:29N 37°47' W 122°23'0 0.0
2017-Apr-20 17:59N 37°47' W 122°23'0 0.0
2017-Apr-20 17:29N 37°47' W 122°23'0 0.0
2017-Apr-20 16:55N 37°47' W 122°23'0 0.0
2017-Apr-20 16:29N 37°47' W 122°23'0 0.0
2017-Apr-20 15:59N 37°47' W 122°23'0 0.0
2017-Apr-20 15:29N 37°47' W 122°23'0 0.0
2017-Apr-20 14:59N 37°47' W 122°23'0 0.0
2017-Apr-20 14:29N 37°47' W 122°23'0 0.0
2017-Apr-20 13:29N 37°47' W 122°23'0 0.0
2017-Apr-20 12:59N 37°47' W 122°23'0 0.0
2017-Apr-20 12:29N 37°47' W 122°23'0 0.0
2017-Apr-20 11:59N 37°47' W 122°23'0 0.0
2017-Apr-20 11:29N 37°47' W 122°23'0 0.0
2017-Apr-20 10:56N 37°47' W 122°23'0 0.0
2017-Apr-20 10:26N 37°47' W 122°23'0 0.0
2017-Apr-20 09:56N 37°47' W 122°23'0 0.0
2017-Apr-20 09:20N 37°47' W 122°23'0 0.0
2017-Apr-20 08:50N 37°47' W 122°23'0 0.0
2017-Apr-20 08:26N 37°47' W 122°23'0 0.0
2017-Apr-20 07:59N 37°47' W 122°23'0 0.0
2017-Apr-20 07:29N 37°47' W 122°23'0 0.0
2017-Apr-20 06:59N 37°47' W 122°23'0 0.0
2017-Apr-20 06:29N 37°47' W 122°23'0 0.0
2017-Apr-20 05:59N 37°47' W 122°23'0 0.0
2017-Apr-20 05:29N 37°47' W 122°23'0 0.0
2017-Apr-20 04:59N 37°47' W 122°23'0 0.0
2017-Apr-20 04:29N 37°47' W 122°23'0 0.0
2017-Apr-20 03:59N 37°47' W 122°23'0 0.0
2017-Apr-20 03:29N 37°47' W 122°23'0 0.0
2017-Apr-20 02:59N 37°47' W 122°23'0 0.0
2017-Apr-20 02:26N 37°47' W 122°23'0 0.0
2017-Apr-20 01:59N 37°47' W 122°23'0 0.0
2017-Apr-20 01:29N 37°47' W 122°23'0 0.0
2017-Apr-20 00:59N 37°47' W 122°23'0 0.0
2017-Apr-20 00:29N 37°47' W 122°23'0 0.0
2017-Apr-19 23:59N 37°47' W 122°23'0 0.0
2017-Apr-19 23:29N 37°47' W 122°23'0 0.0
2017-Apr-19 22:56N 37°47' W 122°23'0 0.0
2017-Apr-19 22:26N 37°47' W 122°23'0 0.0
2017-Apr-19 21:59N 37°47' W 122°23'1 0.1
2017-Apr-19 14:49N 37°47' W 122°22'1 1.7
2017-Apr-19 14:28N 37°48' W 122°22'0 0.1
2017-Apr-19 13:26N 37°47' W 122°21'0 0.0
2017-Apr-19 12:59N 37°47' W 122°21'0 0.0
2017-Apr-19 12:29N 37°47' W 122°21'0 0.0
2017-Apr-19 11:59N 37°47' W 122°21'0 0.0
2017-Apr-19 11:29N 37°47' W 122°21'0 0.0
2017-Apr-19 10:59N 37°47' W 122°21'0 0.0
2017-Apr-19 10:29N 37°47' W 122°21'0 0.0
2017-Apr-19 09:59N 37°47' W 122°21'0 0.0
2017-Apr-19 09:28N 37°47' W 122°21'0 0.0
2017-Apr-19 08:58N 37°48' W 122°21'0 0.0
2017-Apr-19 08:29N 37°48' W 122°21'0 0.1
2017-Apr-19 07:59N 37°48' W 122°22'0 0.0
2017-Apr-19 07:29N 37°48' W 122°22'0 0.0
2017-Apr-19 06:59N 37°48' W 122°22'0 0.0
2017-Apr-19 06:29N 37°48' W 122°22'0 0.0
2017-Apr-19 05:59N 37°48' W 122°22'0 0.0
2017-Apr-19 05:25N 37°48' W 122°22'0 0.0
2017-Apr-19 04:59N 37°48' W 122°22'0 0.1
2017-Apr-19 04:29N 37°48' W 122°21'0 0.0
2017-Apr-19 03:59N 37°48' W 122°21'0 0.1
2017-Apr-19 03:28N 37°48' W 122°21'0 0.0
2017-Apr-19 02:59N 37°47' W 122°21'0 0.0
2017-Apr-19 02:29N 37°47' W 122°21'0 0.1
2017-Apr-19 01:59N 37°47' W 122°21'0 0.0
2017-Apr-19 01:29N 37°47' W 122°21'0 0.1
2017-Apr-19 00:59N 37°47' W 122°21'0 0.1
2017-Apr-19 00:29N 37°47' W 122°21'0 0.1
2017-Apr-18 23:59N 37°47' W 122°21'0 0.1
2017-Apr-18 23:29N 37°47' W 122°21'0 0.0
2017-Apr-18 22:59N 37°47' W 122°21'0 0.0
2017-Apr-18 22:29N 37°47' W 122°21'0 0.1
2017-Apr-18 22:00N 37°48' W 122°21'1 2.6
2017-Apr-18 21:30N 37°48' W 122°23'611.8
2017-Apr-18 21:00N 37°48' W 122°30'815.0
2017-Apr-18 20:30N 37°45' W 122°39'713.6
2017-Apr-18 20:00N 37°47' W 122°48'816.5
2017-Apr-18 19:31N 37°51' W 122°57'917.3
2017-Apr-18 19:01N 37°55' W 123°06'816.6
2017-Apr-18 18:31N 38°01' W 123°14'817.0
2017-Apr-18 18:01N 38°07' W 123°21'917.0
2017-Apr-18 17:30N 38°15' W 123°25'612.0
2017-Apr-18 17:00N 38°20' W 123°30'917.6
2017-Apr-18 16:30N 38°27' W 123°35'714.9
2017-Apr-18 16:01N 38°34' W 123°39'815.1
2017-Apr-18 15:30N 38°41' W 123°45'40813.1
2017-Apr-17 08:21N 45°24' W 125°05'617.8
2017-Apr-17 07:59N 45°31' W 125°05'917.9
2017-Apr-17 07:31N 45°39' W 125°05'918.0
2017-Apr-17 07:01N 45°48' W 125°05'918.1
2017-Apr-17 06:30N 45°57' W 125°06'918.2
2017-Apr-17 06:01N 46°06' W 125°06'918.4
2017-Apr-17 05:31N 46°15' W 125°05'918.4
2017-Apr-17 05:00N 46°25' W 125°06'918.6
2017-Apr-17 04:31N 46°34' W 125°06'918.6
2017-Apr-17 04:00N 46°43' W 125°07'918.5
2017-Apr-17 03:30N 46°53' W 125°08'918.6
2017-Apr-17 03:00N 47°02' W 125°09'510.4
2017-Apr-17 02:30N 47°07' W 125°10'4 8.3
2017-Apr-17 02:00N 47°11' W 125°06'714.5
2017-Apr-17 01:31N 47°18' W 125°07'5410.3
2017-Apr-16 20:14N 48°12' W 125°07'3 8.6
2017-Apr-16 19:53N 48°15' W 125°08'4 8.3
2017-Apr-16 19:26N 48°19' W 125°09'4 8.4
2017-Apr-16 18:57N 48°23' W 125°08'4 8.4
2017-Apr-16 18:30N 48°26' W 125°06'4 8.0
2017-Apr-16 17:57N 48°30' W 125°03'3 7.2
2017-Apr-16 17:30N 48°31' W 124°58'5 9.7
2017-Apr-16 17:00N 48°31' W 124°51'4 8.9
2017-Apr-16 16:30N 48°31' W 124°44'715.2
2017-Apr-16 16:00N 48°28' W 124°34'816.1
2017-Apr-16 15:31N 48°25' W 124°23'815.9
2017-Apr-16 15:01N 48°22' W 124°12'1110.9
2017-Apr-16 14:00N 48°18' W 123°56'2 4.3
2017-Apr-16 13:27N 48°17' W 123°53'2 4.3
2017-Apr-16 13:00N 48°17' W 123°50'2 3.9
2017-Apr-16 12:30N 48°16' W 123°47'2 3.8
2017-Apr-16 12:00N 48°16' W 123°44'2 4.1
2017-Apr-16 11:30N 48°16' W 123°41'2 4.0
2017-Apr-16 11:00N 48°16' W 123°38'2 4.1
2017-Apr-16 10:30N 48°15' W 123°35'2 4.8
2017-Apr-16 10:00N 48°15' W 123°32'2 4.3
2017-Apr-16 09:30N 48°15' W 123°29'2 4.1
2017-Apr-16 09:00N 48°15' W 123°26'2 4.5
2017-Apr-16 08:30N 48°14' W 123°22'2 4.2
2017-Apr-16 08:00N 48°14' W 123°19'2 4.4
2017-Apr-16 07:29N 48°14' W 123°16'2 4.4
2017-Apr-16 06:56N 48°14' W 123°12'2 4.1
2017-Apr-16 06:30N 48°14' W 123°09'2 3.5
2017-Apr-16 05:58N 48°13' W 123°06'1 2.4
2017-Apr-16 05:26N 48°13' W 123°05'1 2.2
2017-Apr-16 05:00N 48°13' W 123°03'1 2.1
2017-Apr-16 04:30N 48°13' W 123°02'1 2.0
2017-Apr-16 03:59N 48°13' W 123°00'2 3.1
2017-Apr-16 03:15N 48°12' W 122°57'1 3.2
2017-Apr-16 03:00N 48°12' W 122°56'1 1.9
2017-Apr-16 02:29N 48°13' W 122°54'1 1.1
2017-Apr-16 01:58N 48°12' W 122°53'13 9.0
2017-Apr-16 00:30N 48°04' W 122°38'611.9
2017-Apr-16 00:00N 47°59' W 122°35'611.3
2017-Apr-15 23:30N 47°55' W 122°29'612.0
2017-Apr-15 23:00N 47°49' W 122°27'611.9
2017-Apr-15 22:30N 47°43' W 122°26'5 9.1
2017-Apr-15 22:00N 47°38' W 122°26'4 7.3
2017-Apr-15 21:30N 47°36' W 122°22'1 1.6
2017-Apr-15 21:00N 47°36' W 122°21'0 0.7
2017-Apr-15 20:29N 47°35' W 122°21'0 0.0
2017-Apr-15 19:59N 47°35' W 122°21'0 0.0
2017-Apr-15 19:29N 47°35' W 122°21'0 0.0
2017-Apr-15 18:59N 47°35' W 122°21'0 0.0
2017-Apr-15 18:29N 47°35' W 122°21'0 0.0
2017-Apr-15 17:59N 47°35' W 122°21'0 0.0
2017-Apr-15 17:27N 47°35' W 122°21'0 0.0
2017-Apr-15 16:57N 47°35' W 122°21'0 0.0
2017-Apr-15 16:29N 47°35' W 122°21'0 0.0
2017-Apr-15 15:59N 47°35' W 122°21'0 0.0
2017-Apr-15 15:30N 47°35' W 122°21'0 0.0
2017-Apr-15 14:59N 47°35' W 122°21'0 0.0
2017-Apr-15 14:30N 47°35' W 122°21'0 0.0
2017-Apr-15 13:29N 47°35' W 122°21'0 0.0
2017-Apr-15 12:59N 47°35' W 122°21'0 0.0
2017-Apr-15 12:30N 47°35' W 122°21'0 0.0
2017-Apr-15 12:00N 47°35' W 122°21'0 0.0
2017-Apr-15 11:29N 47°35' W 122°21'0 0.0
2017-Apr-15 11:00N 47°35' W 122°21'0 0.0
2017-Apr-15 10:30N 47°35' W 122°21'0 0.0
2017-Apr-15 10:00N 47°35' W 122°21'0 0.0
2017-Apr-15 09:29N 47°35' W 122°21'0 0.0
2017-Apr-15 09:00N 47°35' W 122°21'0 0.0
2017-Apr-15 08:29N 47°35' W 122°21'0 0.0
2017-Apr-15 08:00N 47°35' W 122°21'0 0.0
2017-Apr-15 07:26N 47°35' W 122°21'0 0.0
2017-Apr-15 07:00N 47°35' W 122°21'0 0.0
2017-Apr-15 06:30N 47°35' W 122°21'0 0.0
2017-Apr-15 06:00N 47°35' W 122°21'0 0.0
2017-Apr-15 05:29N 47°35' W 122°21'0 0.0
2017-Apr-15 05:00N 47°35' W 122°21'0 0.0
2017-Apr-15 04:30N 47°35' W 122°21'0 0.0
2017-Apr-15 03:57N 47°35' W 122°21'0 0.0
2017-Apr-15 03:30N 47°35' W 122°21'0 0.0
2017-Apr-15 03:00N 47°35' W 122°21'0 0.0
2017-Apr-15 02:30N 47°35' W 122°21'0 0.0
2017-Apr-15 01:57N 47°35' W 122°21'0 0.0
2017-Apr-15 01:27N 47°35' W 122°21'0 0.0
2017-Apr-15 01:00N 47°35' W 122°21'0 0.0
2017-Apr-15 00:26N 47°35' W 122°21'0 0.0
2017-Apr-15 00:00N 47°35' W 122°21'0 0.0
2017-Apr-14 23:29N 47°35' W 122°21'0 0.0
2017-Apr-14 22:59N 47°35' W 122°21'0 0.0
2017-Apr-14 22:30N 47°35' W 122°21'0 0.0
2017-Apr-14 21:59N 47°35' W 122°21'0 0.0
2017-Apr-14 21:30N 47°35' W 122°21'0 0.0
2017-Apr-14 21:00N 47°35' W 122°21'0 0.0
2017-Apr-14 20:29N 47°35' W 122°21'0 0.0
2017-Apr-14 19:59N 47°35' W 122°21'0 0.0
2017-Apr-14 19:29N 47°35' W 122°21'0 0.0
2017-Apr-14 19:00N 47°35' W 122°21'0 0.0
2017-Apr-14 18:29N 47°35' W 122°21'0 0.0
2017-Apr-14 18:00N 47°35' W 122°21'0 0.0
2017-Apr-14 17:29N 47°35' W 122°21'0 0.0
2017-Apr-14 17:00N 47°35' W 122°21'0 0.0
2017-Apr-14 16:30N 47°35' W 122°21'0 0.0
2017-Apr-14 15:56N 47°35' W 122°21'0 0.0
2017-Apr-14 15:29N 47°35' W 122°21'0 0.0
2017-Apr-14 14:59N 47°35' W 122°21'0 0.0
2017-Apr-14 14:30N 47°35' W 122°21'0 0.0
2017-Apr-14 13:30N 47°35' W 122°21'0 0.0
2017-Apr-14 13:00N 47°35' W 122°21'0 0.0
2017-Apr-14 12:30N 47°35' W 122°21'0 0.0
2017-Apr-14 12:00N 47°35' W 122°21'0 0.0
2017-Apr-14 11:29N 47°35' W 122°21'0 0.0
2017-Apr-14 10:59N 47°35' W 122°21'0 0.0
2017-Apr-14 10:29N 47°35' W 122°21'0 0.0
2017-Apr-14 10:00N 47°35' W 122°21'0 0.0
2017-Apr-14 09:29N 47°35' W 122°21'0 0.0
2017-Apr-14 09:00N 47°35' W 122°21'0 0.0
2017-Apr-14 08:30N 47°35' W 122°21'0 0.0
2017-Apr-14 07:56N 47°35' W 122°21'0 0.0
2017-Apr-14 07:30N 47°35' W 122°21'0 0.0
2017-Apr-14 06:59N 47°35' W 122°21'0 0.0
2017-Apr-14 06:30N 47°35' W 122°21'0 0.0
2017-Apr-14 05:59N 47°35' W 122°21'0 0.0
2017-Apr-14 05:30N 47°35' W 122°21'0 0.0
2017-Apr-14 04:57N 47°35' W 122°21'0 0.0
2017-Apr-14 04:29N 47°35' W 122°21'0 0.0
2017-Apr-14 04:00N 47°35' W 122°21'0 0.0
2017-Apr-14 03:29N 47°35' W 122°21'0 0.0
2017-Apr-14 03:00N 47°35' W 122°21'0 0.0
2017-Apr-14 02:30N 47°35' W 122°21'0 0.0
2017-Apr-14 02:00N 47°35' W 122°21'0 0.0
2017-Apr-14 01:30N 47°35' W 122°21'0 0.0
2017-Apr-14 01:00N 47°35' W 122°21'0 0.0
2017-Apr-14 00:30N 47°35' W 122°21'0 0.0
2017-Apr-14 00:00N 47°35' W 122°21'0 0.0
2017-Apr-13 23:29N 47°35' W 122°21'0 0.0
2017-Apr-13 22:59N 47°35' W 122°21'0 0.0
2017-Apr-13 22:27N 47°35' W 122°21'0 0.0
2017-Apr-13 21:59N 47°35' W 122°21'0 0.0
2017-Apr-13 21:24N 47°35' W 122°21'0 0.0
2017-Apr-13 21:00N 47°35' W 122°21'0 0.0
2017-Apr-13 20:26N 47°35' W 122°21'0 0.0
2017-Apr-13 19:59N 47°35' W 122°21'0 0.0
2017-Apr-13 19:30N 47°35' W 122°21'0 0.0
2017-Apr-13 18:59N 47°35' W 122°21'0 0.0
2017-Apr-13 18:30N 47°35' W 122°21'0 0.0
2017-Apr-13 17:57N 47°35' W 122°21'0 0.0
2017-Apr-13 17:27N 47°35' W 122°21'0 0.0
2017-Apr-13 17:00N 47°35' W 122°21'0 0.0
2017-Apr-13 16:30N 47°35' W 122°21'0 0.0
2017-Apr-13 16:00N 47°35' W 122°21'0 0.0
2017-Apr-13 15:29N 47°35' W 122°21'0 0.0
2017-Apr-13 15:00N 47°35' W 122°21'0 0.0
2017-Apr-13 14:30N 47°35' W 122°21'0 0.0
2017-Apr-11 22:12N 47°35' W 122°21'0 0.0
2017-Apr-11 21:58N 47°35' W 122°21'0 0.0
2017-Apr-11 21:25N 47°35' W 122°21'0 0.0
2017-Apr-11 21:00N 47°35' W 122°21'0 0.0
2017-Apr-11 20:27N 47°35' W 122°21'0 0.0
2017-Apr-11 20:00N 47°35' W 122°21'0 0.0
2017-Apr-11 19:30N 47°35' W 122°21'  

Dump ship's entire track history